Latest Weather Observations for Sydney Airport

IDN60801

Issued at 6:32 pm EST Thursday 27 July 2017 (issued every 30 minutes, with the page automatically refreshed every 10 minutes)

About weather observations | Map of weather stations | Latest weather observations for NSW | Other Formats
Station Details ID: 066037 Name: SYDNEY AIRPORT AMO Lat: -33.95 Lon: 151.17 Height: 6.0 m
Data from the previous 72 hours. | See also: Recent months at Sydney Airport
Date/Time
EST
Temp
°C
App
Temp
°C
Dew
Point
°C
Rel
Hum
%
Delta-T
°C
Wind Press
QNH
hPa
Press
MSL
hPa
Rain since
9am
mm
Dir  Spd
km/h
Gust
km/h
Spd
kts
Gust
kts
27/06:00pm 15.5 11.4 6.0 53 4.6 NE 17 20 9 11 1021.7 1021.7 0.2
27/05:30pm 15.8 12.0 5.7 51 4.8 NE 15 19 8 10 1022.0 1022.0 0.2
27/05:00pm 15.6 11.0 5.5 51 4.8 NE 19 24 10 13 1021.8 1021.8 0.2
27/04:30pm 16.3 11.2 5.9 50 5.0 ENE 22 30 12 16 1021.8 1021.8 0.2
27/04:00pm 16.4 11.2 5.7 49 5.1 ENE 22 28 12 15 1021.8 1021.8 0.2
27/03:30pm 16.7 12.1 5.6 48 5.3 E 19 24 10 13 1022.4 1022.4 0.2
27/03:00pm 16.9 13.1 5.8 48 5.4 E 15 19 8 10 1022.7 1022.7 0.2
27/02:30pm 16.5 12.8 6.1 50 5.1 ESE 15 22 8 12 1022.6 1022.6 0.2
27/02:00pm 16.7 13.7 6.2 50 5.1 ESE 11 15 6 8 1022.7 1022.7 0.0
27/01:30pm 16.4 13.7 7.3 55 4.5 S 11 19 6 10 1023.0 1023.0 0.0
27/01:00pm 15.8 12.7 7.3 57 4.2 S 13 17 7 9 1023.2 1023.2 0.0
27/12:30pm 16.2 12.7 7.2 55 4.5 S 15 20 8 11 1023.4 1023.4 0.0
27/12:00pm 16.1 12.3 7.6 57 4.2 S 17 24 9 13 1023.9 1023.9 0.0
27/11:30am 15.2 12.3 6.5 56 4.2 S 11 15 6 8 1024.6 1024.6 0.0
27/11:00am 15.0 12.4 6.0 55 4.3 WSW 9 15 5 8 1025.2 1025.2 0.0
27/10:30am 14.9 11.4 5.4 53 4.5 WNW 13 32 7 17 1025.5 1025.5 0.0
27/10:00am 15.2 11.7 5.4 52 4.6 WNW 13 24 7 13 1025.7 1025.7 0.0
27/09:30am 15.0 11.5 5.5 53 4.5 WNW 13 15 7 8 1025.4 1025.4 0.0
27/09:00am 14.0 10.4 4.9 54 4.2 NW 13 15 7 8 1025.1 1025.1 0.0
27/08:30am 12.6 9.3 4.8 59 3.6 NW 11 19 6 10 1024.9 1024.9 0.0
27/08:00am 11.3 8.0 4.3 62 3.1 NW 11 13 6 7 1024.9 1024.9 0.0
27/07:30am 10.6 6.8 4.1 64 2.9 NW 13 15 7 8 1024.6 1024.6 0.0
27/07:00am 9.8 6.4 4.2 68 2.5 W 11 15 6 8 1024.5 1024.5 0.0
27/06:30am 9.2 5.0 3.8 69 2.4 W 15 20 8 11 1024.3 1024.3 0.0
27/06:00am 9.7 4.8 4.1 68 2.5 WNW 19 24 10 13 1024.1 1024.1 0.0
27/05:30am 9.2 5.3 3.6 68 2.4 W 13 17 7 9 1023.8 1023.8 0.0
27/05:00am 10.3 6.9 4.2 66 2.7 W 11 13 6 7 1023.4 1023.4 0.0
27/04:30am 10.0 5.5 4.0 66 2.6 NW 17 19 9 10 1023.5 1023.5 0.0
27/04:00am 9.9 6.9 3.9 66 2.6 NW 9 17 5 9 1023.2 1023.2 0.0
27/03:30am 10.4 6.6 4.1 65 2.8 WSW 13 17 7 9 1023.1 1023.1 0.0
27/03:00am 10.7 7.3 4.0 63 3.0 W 11 15 6 8 1023.3 1023.3 0.0
27/02:30am 10.3 6.0 3.3 62 3.0 WSW 15 19 8 10 1023.0 1023.0 0.0
27/02:00am 11.1 6.5 3.6 60 3.3 WSW 17 19 9 10 1022.6 1022.6 0.0
27/01:30am 11.9 7.2 3.4 56 3.8 W 17 20 9 11 1022.5 1022.5 0.0
27/01:00am 12.1 6.5 3.6 56 3.8 WSW 22 28 12 15 1022.1 1022.1 0.0
27/12:30am 12.7 6.7 3.4 53 4.1 WSW 24 33 13 18 1022.4 1022.4 0.0
27/12:00am 13.1 6.3 3.2 51 4.4 W 28 35 15 19 1022.3 1022.3 0.0
 
Date/Time
EST
Temp
°C
App
Temp
°C
Dew
Point
°C
Rel
Hum
%
Delta-T
°C
Wind Press
QNH
hPa
Press
MSL
hPa
Rain since
9am
mm
Dir  Spd
km/h
Gust
km/h
Spd
kts
Gust
kts
26/11:30pm 13.5 7.1 3.0 49 4.7 WSW 26 33 14 18 1022.2 1022.2 0.0
26/11:00pm 13.9 6.3 3.1 48 4.8 WSW 32 39 17 21 1021.7 1021.7 0.0
26/10:30pm 14.1 6.5 3.0 47 5.0 WSW 32 46 17 25 1021.2 1021.2 0.0
26/10:00pm 14.5 5.6 3.3 47 5.0 WSW 39 48 21 26 1020.7 1020.7 0.0
26/09:33pm 14.7 5.8 3.2 46 5.2 WSW 39 67 21 36 1020.5 1020.5 0.0
26/09:30pm 15.1 6.2 3.3 45 5.4 WSW 39 52 21 28 1020.4 1020.4 0.0
26/09:00pm 15.2 5.9 3.0 44 5.5 WSW 41 52 22 28 1019.9 1019.9 0.0
26/08:30pm 15.4 7.6 2.9 43 5.6 WSW 33 39 18 21 1019.6 1019.6 0.0
26/08:00pm 15.6 11.1 4.0 46 5.3 SSW 17 24 9 13 1019.6 1019.6 0.0
26/07:30pm 16.2 8.2 1.9 38 6.4 W 33 41 18 22 1018.9 1018.9 0.0
26/07:00pm 16.6 8.6 1.9 37 6.5 W 33 43 18 23 1018.8 1018.8 0.0
26/06:30pm 17.0 9.6 1.8 36 6.8 W 30 41 16 22 1018.7 1018.7 0.0
26/06:02pm 17.0 9.0 1.8 36 6.8 WSW 33 54 18 29 1018.1 1018.1 0.0
26/06:00pm 17.1 9.3 1.9 36 6.8 WSW 32 41 17 22 1018.1 1018.1 0.0
26/05:30pm 17.6 9.6 1.6 34 7.1 W 33 44 18 24 1017.2 1017.2 0.0
26/05:00pm 18.4 9.9 1.0 31 7.7 W 35 50 19 27 1017.1 1017.1 0.0
26/04:30pm 19.5 10.7 1.5 30 8.2 W 37 50 20 27 1016.3 1016.3 0.0
26/04:00pm 19.6 8.4 1.6 30 8.2 W 50 65 27 35 1015.6 1015.6 0.0
26/03:30pm 19.9 10.0 1.8 30 8.3 W 43 59 23 32 1015.2 1015.2 0.0
26/03:13pm 20.3 10.8 1.7 29 8.5 W 41 69 22 37 1014.9 1014.9 0.0
26/03:00pm 20.2 10.3 2.5 31 8.2 W 44 56 24 30 1014.8 1014.8 0.0
26/02:30pm 21.1 10.8 2.9 30 8.6 W 46 65 25 35 1014.7 1014.7 0.0
26/02:00pm 20.3 10.5 2.2 30 8.4 W 43 61 23 33 1014.7 1014.7 0.0
26/01:47pm 20.9 10.6 2.7 30 8.5 W 46 65 25 35 1014.7 1014.7 0.0
26/01:30pm 21.0 11.4 3.2 31 8.4 WSW 43 57 23 31 1014.7 1014.7 0.0
26/01:15pm 21.4 13.7 3.6 31 8.5 W 33 56 18 30 1014.7 1014.7 0.0
26/01:00pm 20.9 12.5 3.6 32 8.3 W 37 46 20 25 1014.7 1014.7 0.0
26/12:30pm 20.7 11.8 3.0 31 8.3 WSW 39 50 21 27 1014.8 1014.8 0.0
26/12:00pm 20.3 11.9 3.5 33 8.0 WSW 37 50 20 27 1015.1 1015.1 0.0
26/11:30am 20.8 12.8 4.0 33 8.1 WSW 35 52 19 28 1015.3 1015.3 0.0
26/11:03am 20.4 13.1 4.4 35 7.7 W 32 52 17 28 1015.6 1015.6 0.0
26/11:00am 20.9 14.4 4.9 35 7.8 W 28 39 15 21 1015.6 1015.6 0.0
26/10:30am 20.3 13.1 5.1 37 7.4 W 32 46 17 25 1015.8 1015.8 0.0
26/10:00am 19.9 12.5 5.2 38 7.2 W 33 48 18 26 1015.9 1015.9 0.0
26/09:35am 19.7 12.3 5.0 38 7.2 W 33 52 18 28 1015.9 1015.9 0.0
26/09:30am 19.6 12.2 4.9 38 7.1 W 33 44 18 24 1015.8 1015.8 0.0
26/09:21am 19.6 11.0 4.9 38 7.1 W 39 57 21 31 1015.6 1015.6 0.0
26/09:00am 19.1 9.8 4.8 39 6.9 WNW 43 57 23 31 1015.2 1015.2 0.0
26/08:45am 18.8 9.0 5.3 41 6.6 WNW 46 69 25 37 1015.0 1015.0 0.0
26/08:30am 18.8 9.0 5.3 41 6.6 WNW 46 61 25 33 1014.9 1014.9 0.0
26/08:00am 18.5 8.1 4.3 39 6.7 WNW 48 69 26 37 1014.7 1014.7 0.0
26/07:53am 18.3 7.6 4.5 40 6.6 WNW 50 72 27 39 1014.7 1014.7 0.0
26/07:51am 18.3 8.0 4.5 40 6.6 WNW 48 72 26 39 1014.7 1014.7 0.0
26/07:33am 17.1 8.8 4.4 43 6.0 NW 37 57 20 31 1014.7 1014.7 0.0
26/07:30am 16.8 8.9 4.5 44 5.8 NW 35 43 19 23 1014.6 1014.6 0.0
26/07:00am 15.5 7.8 5.4 51 4.8 NW 35 43 19 23 1014.9 1014.9 0.0
26/06:30am 15.4 7.6 5.0 50 4.9 NW 35 44 19 24 1014.5 1014.5 0.0
26/06:00am 15.6 7.0 4.9 49 5.0 WNW 39 48 21 26 1014.9 1014.9 0.0
26/05:49am 15.3 6.3 4.4 48 5.1 WNW 41 50 22 27 1015.0 1015.0 0.0
26/05:30am 14.5 8.1 3.0 46 5.2 NW 26 32 14 17 1015.4 1015.4 0.0
26/05:00am 15.5 8.4 3.6 45 5.4 WNW 30 41 16 22 1015.4 1015.4 0.0
26/04:30am 14.1 7.7 3.0 47 5.0 WNW 26 30 14 16 1015.6 1015.6 0.0
26/04:00am 14.3 9.0 3.2 47 5.0 NW 20 28 11 15 1015.3 1015.3 0.0
26/03:30am 14.1 8.9 3.3 48 4.9 NNW 20 26 11 14 1015.4 1015.4 0.0
26/03:00am 14.5 8.9 3.3 47 5.0 NNW 22 28 12 15 1015.5 1015.5 0.0
26/02:30am 14.0 8.0 3.5 49 4.7 N 24 28 13 15 1015.4 1015.4 0.0
26/02:00am 12.9 7.0 3.8 54 4.1 N 24 26 13 14 1015.7 1015.7 0.0
26/01:30am 14.2 9.1 3.9 50 4.7 NNW 20 24 11 13 1016.2 1016.2 0.0
26/01:00am 14.3 8.8 4.0 50 4.7 N 22 26 12 14 1016.2 1016.2 0.0
26/12:30am 14.0 8.9 4.3 52 4.5 N 20 26 11 14 1016.5 1016.5 0.0
26/12:00am 13.9 9.0 5.0 55 4.1 N 20 22 11 12 1016.7 1016.7 0.0
 
Date/Time
EST
Temp
°C
App
Temp
°C
Dew
Point
°C
Rel
Hum
%
Delta-T
°C
Wind Press
QNH
hPa
Press
MSL
hPa
Rain since
9am
mm
Dir  Spd
km/h
Gust
km/h
Spd
kts
Gust
kts
25/11:30pm 13.8 8.9 5.2 56 4.0 N 20 24 11 13 1017.2 1017.2 0.0
25/11:00pm 14.3 9.7 5.4 55 4.2 NNW 19 22 10 12 1017.4 1017.4 0.0
25/10:30pm 14.3 9.5 5.7 56 4.1 NNW 20 24 11 13 1017.6 1017.6 0.0
25/10:00pm 14.7 10.2 6.0 56 4.2 NNW 19 26 10 14 1017.7 1017.7 0.0
25/09:30pm 16.0 11.8 5.9 51 4.9 N 17 19 9 10 1017.8 1017.8 0.0
25/09:00pm 15.9 12.9 6.1 52 4.7 N 11 13 6 7 1018.0 1018.0 0.0
25/08:30pm 15.4 12.8 5.9 53 4.6 NNE 9 9 5 5 1018.2 1018.2 0.0
25/08:00pm 16.5 13.8 5.8 49 5.2 NNE 9 11 5 6 1018.4 1018.4 0.0
25/07:30pm 16.9 14.2 5.5 47 5.5 N 9 11 5 6 1018.4 1018.4 0.0
25/07:00pm 17.4 14.2 5.0 44 5.9 N 11 13 6 7 1018.8 1018.8 0.0
25/06:30pm 17.9 14.6 4.8 42 6.3 NNW 11 13 6 7 1018.5 1018.5 0.0
25/06:00pm 18.8 15.1 4.2 38 6.9 NNW 13 15 7 8 1018.2 1018.2 0.0
25/05:30pm 19.6 15.5 4.1 36 7.4 NNW 15 17 8 9 1018.2 1018.2 0.0
25/05:00pm 19.6 15.3 3.3 34 7.6 NW 15 20 8 11 1018.3 1018.3 0.0
25/04:30pm 20.7 17.2 3.4 32 8.2 NW 11 15 6 8 1018.3 1018.3 0.0
25/04:00pm 21.2 17.3 3.4 31 8.5 NNW 13 19 7 10 1018.1 1018.1 0.0
25/03:30pm 21.0 16.0 3.7 32 8.3 NW 19 28 10 15 1018.3 1018.3 0.0
25/03:00pm 21.3 17.5 4.0 32 8.3 WNW 13 22 7 12 1018.7 1018.7 0.0
25/02:30pm 21.0 16.0 3.7 32 8.3 WNW 19 26 10 14 1018.9 1018.9 0.0
25/02:00pm 20.4 15.1 3.2 32 8.1 NW 20 32 11 17 1019.1 1019.1 0.0
25/01:30pm 20.1 14.9 3.8 34 7.8 NW 20 28 11 15 1019.5 1019.5 0.0
25/01:00pm 19.7 14.7 3.4 34 7.7 WNW 19 30 10 16 1019.8 1019.8 0.0
25/12:30pm 19.2 14.0 3.4 35 7.4 NW 20 39 11 21 1020.3 1020.3 0.0
25/12:00pm 18.9 13.9 3.5 36 7.2 WNW 19 32 10 17 1021.0 1021.0 0.0
25/11:30am 17.5 13.2 3.4 39 6.5 WNW 15 24 8 13 1021.7 1021.7 0.0
25/11:00am 17.7 13.5 3.9 40 6.4 NW 15 22 8 12 1022.3 1022.3 0.0
25/10:30am 17.5 13.4 4.5 42 6.2 NNW 15 19 8 10 1022.7 1022.7 0.0
25/10:00am 15.8 12.2 4.8 48 5.2 NW 13 19 7 10 1022.9 1022.9 0.0
25/09:30am 15.6 12.0 4.9 49 5.0 WNW 13 17 7 9 1023.2 1023.2 0.0
25/09:00am 14.1 10.4 4.7 53 4.3 WNW 13 17 7 9 1023.1 1023.1 0.0
25/08:30am 13.0 9.0 4.7 57 3.8 NW 15 20 8 11 1023.1 1023.1 0.0
25/08:00am 10.7 6.9 4.0 63 3.0 NW 13 24 7 13 1022.9 1022.9 0.0
25/07:30am 10.3 6.5 4.0 65 2.8 NW 13 15 7 8 1022.8 1022.8 0.0
25/07:00am 9.0 4.4 3.8 70 2.2 WNW 17 24 9 13 1022.4 1022.4 0.0
25/06:30am 9.8 5.7 4.2 68 2.5 WNW 15 22 8 12 1022.3 1022.3 0.0
25/06:00am 10.1 6.7 4.0 66 2.7 NW 11 13 6 7 1022.0 1022.0 0.0
25/05:30am 8.8 5.4 3.8 71 2.2 NW 11 13 6 7 1021.8 1021.8 0.0
25/05:00am 10.1 7.1 4.0 66 2.7 WSW 9 11 5 6 1021.8 1021.8 0.0
25/04:30am 9.4 6.2 2.9 64 2.8 WSW 9 11 5 6 1021.4 1021.4 0.0
25/04:00am 10.1 7.5 4.0 66 2.7 NNW 7 9 4 5 1021.5 1021.5 0.0
25/03:30am 10.3 7.5 3.3 62 3.0 NW 7 9 4 5 1021.6 1021.6 0.0
25/03:00am 10.0 6.9 3.7 65 2.7 NW 9 11 5 6 1021.6 1021.6 0.0
25/02:30am 11.1 7.7 4.1 62 3.1 WNW 11 13 6 7 1021.3 1021.3 0.0
25/02:00am 10.5 5.0 4.2 65 2.8 WNW 22 26 12 14 1021.4 1021.4 0.0
25/01:30am 10.9 5.8 4.1 63 3.0 WNW 20 26 11 14 1021.4 1021.4 0.0
25/01:00am 11.4 5.1 3.9 60 3.3 W 26 32 14 17 1021.3 1021.3 0.0
25/12:30am 12.2 5.9 3.9 57 3.7 W 26 32 14 17 1021.2 1021.2 0.0
25/12:00am 12.5 7.4 4.0 56 3.8 W 20 26 11 14 1021.1 1021.1 0.0
 
Date/Time
EST
Temp
°C
App
Temp
°C
Dew
Point
°C
Rel
Hum
%
Delta-T
°C
Wind Press
QNH
hPa
Press
MSL
hPa
Rain since
9am
mm
Dir  Spd
km/h
Gust
km/h
Spd
kts
Gust
kts
24/11:30pm 13.0 7.1 3.9 54 4.1 W 24 30 13 16 1021.3 1021.3 0.0
24/11:00pm 13.0 8.5 4.2 55 4.0 W 17 24 9 13 1021.3 1021.3 0.0
24/10:30pm 13.5 9.3 3.6 51 4.5 NW 15 22 8 12 1021.3 1021.3 0.0
24/10:00pm 13.7 8.5 3.8 51 4.5 WNW 20 30 11 16 1021.3 1021.3 0.0
24/09:30pm 13.6 8.0 3.7 51 4.5 W 22 30 12 16 1021.3 1021.3 0.0
24/09:00pm 14.1 7.7 3.3 48 4.8 WSW 26 33 14 18 1021.2 1021.2 0.0
24/08:30pm 14.8 8.8 3.3 46 5.2 WSW 24 30 13 16 1021.0 1021.0 0.0
24/08:00pm 15.3 8.6 3.5 45 5.4 WSW 28 33 15 18 1020.7 1020.7 0.0
24/07:30pm 14.9 9.6 3.1 45 5.3 WSW 20 24 11 13 1020.6 1020.6 0.0
24/07:00pm 15.5 10.7 2.7 42 5.7 WSW 17 20 9 11 1020.4 1020.4 0.0

Other Formats:

Comma delimited format used in spreadsheet applications
http://www.bom.gov.au/fwo/IDN60801/IDN60801.94767.axf

JavaScript Object Notation format (JSON) in row-major order
http://www.bom.gov.au/fwo/IDN60801/IDN60801.94767.json